Louis Armstrong New Orleans International Airport (MSY/KMSY)




Flight Aircraft Arriving
CPX431 B752
B738
KBNA - Nashville International Airport
United StatesTennessee Nashville, Tennessee
Flight Aircraft Departing
CPX404 B752
B738
KBNA - Nashville International Airport
United StatesTennessee Nashville, Tennessee
Airport Information
Location: New Orleans, US
Coordinates: 29.9933 / -90.259
Elevation:
Time Offset:
Local Time:
UTC Time:
Jet A Price: $1.04/lbs

Current Weather
METAR: KMSY 232023Z 14012KT 10SM BKN009 OVC015 17/15 A2990 RMK AO2 T01720150
TAF: KMSY 232007Z 2320/2424 15012KT P6SM VCSH SCT008 OVC015 FM232200 19006KT P6SM VCSH BKN015 FM240200 26005KT P6SM BKN025 FM240700 32007KT P6SM BKN015 FM241300 32007KT P6SM SCT010

Recent Arrivals
Date Flight Type Depart
12/21/2019 CPX404 B752 Nashville International Airport (KBNA)
09/19/2019 CPX404 B752 Nashville International Airport (KBNA)
06/11/2019 CPX404 B752 Nashville International Airport (KBNA)
02/14/2019 CPX404 B752 Nashville International Airport (KBNA)
Recent Departures
Date Flight Type Arrive
09/22/2019 CPX431 B752 Nashville International Airport (KBNA)
06/11/2019 CPX431 B752 Nashville International Airport (KBNA)
02/17/2019 CPX431 B752 Nashville International Airport (KBNA)